createdAt,value
2019-02-12T00:00:46.018Z,99.99
2019-02-12T00:01:46.021Z,99.99
2019-02-12T00:02:46.009Z,99.99
2019-02-12T00:03:45.996Z,99.99
2019-02-12T00:04:45.974Z,99.99
2019-02-12T00:05:45.965Z,99.99
2019-02-12T00:06:45.961Z,99.99
2019-02-12T00:07:45.948Z,99.99
2019-02-12T00:08:45.950Z,99.99
2019-02-12T00:09:45.920Z,99.99
2019-02-12T00:10:45.910Z,99.99
2019-02-12T00:11:45.904Z,99.99
2019-02-12T00:12:45.887Z,99.99
2019-02-12T00:13:45.906Z,99.99
2019-02-12T00:14:45.877Z,99.99
2019-02-12T00:15:45.868Z,99.99
2019-02-12T00:16:45.845Z,99.84
2019-02-12T00:17:45.837Z,99.73
2019-02-12T00:18:45.833Z,99.73
2019-02-12T00:19:45.817Z,99.94
2019-02-12T00:20:45.802Z,99.73
2019-02-12T00:21:45.796Z,99.52
2019-02-12T00:22:45.799Z,99.99
2019-02-12T00:23:45.784Z,99.99
2019-02-12T00:24:45.762Z,99.99
2019-02-12T00:25:45.747Z,99.42
2019-02-12T00:26:45.739Z,99.57
2019-02-12T00:27:45.734Z,99.63
2019-02-12T00:28:45.729Z,99.99
2019-02-12T00:29:45.710Z,99.99
2019-02-12T00:30:45.710Z,99.99
2019-02-12T00:31:45.697Z,99.99
2019-02-12T00:32:45.688Z,99.99
2019-02-12T00:33:45.676Z,99.99
2019-02-12T00:34:45.653Z,99.99
2019-02-12T00:35:45.642Z,99.99
2019-02-12T00:36:45.635Z,99.94
2019-02-12T00:37:45.625Z,99.99
2019-02-12T00:38:45.621Z,99.99
2019-02-12T00:39:45.599Z,99.99
2019-02-12T00:40:45.586Z,99.99
2019-02-12T00:41:45.581Z,99.99
2019-02-12T00:42:45.565Z,99.99
2019-02-12T00:43:45.570Z,99.99
2019-02-12T00:44:45.549Z,99.94
2019-02-12T00:45:45.532Z,99.42
2019-02-12T00:46:45.526Z,99.63
2019-02-12T00:47:45.510Z,99.94
2019-02-12T00:48:45.515Z,99.73
2019-02-12T00:49:45.498Z,99.73
2019-02-12T00:50:45.504Z,99.32
2019-02-12T00:51:45.482Z,99.73
2019-02-12T00:52:45.463Z,99.73
2019-02-12T00:53:45.462Z,99.58
2019-02-12T00:54:45.443Z,99.32
2019-02-12T00:55:45.428Z,99.84
2019-02-12T00:56:45.416Z,99.63
2019-02-12T00:57:45.408Z,99.63
2019-02-12T00:58:45.422Z,99.73
2019-02-12T00:59:45.384Z,99.52
2019-02-12T01:00:45.388Z,99.99
2019-02-12T01:01:45.372Z,99.63
2019-02-12T01:02:45.359Z,99.94
2019-02-12T01:03:45.337Z,99.63
2019-02-12T01:04:45.347Z,99.84
2019-02-12T01:05:45.321Z,99.73
2019-02-12T01:06:45.309Z,99.99
2019-02-12T01:07:45.311Z,99.99
2019-02-12T01:08:45.284Z,99.94
2019-02-12T01:09:45.319Z,99.94
2019-02-12T01:10:45.263Z,99.99
2019-02-12T01:11:45.252Z,99.99
2019-02-12T01:12:45.248Z,99.99
2019-02-12T01:13:45.243Z,99.99
2019-02-12T01:14:45.239Z,99.99
2019-02-12T01:15:45.218Z,99.99
2019-02-12T01:16:45.217Z,99.99
2019-02-12T01:17:45.195Z,99.99
2019-02-12T01:18:45.187Z,99.99
2019-02-12T01:19:45.210Z,99.99
2019-02-12T01:20:45.160Z,99.99
2019-02-12T01:21:45.152Z,99.99
2019-02-12T01:22:45.153Z,99.99
2019-02-12T01:23:45.146Z,99.99
2019-02-12T01:24:45.137Z,99.99
2019-02-12T01:25:45.104Z,99.99
2019-02-12T01:26:45.102Z,99.99
2019-02-12T01:27:45.095Z,99.99
2019-02-12T01:28:45.076Z,99.99
2019-02-12T01:29:45.072Z,99.99
2019-02-12T01:30:45.048Z,99.99
2019-02-12T01:31:45.037Z,99.99
2019-02-12T01:32:45.045Z,99.99
2019-02-12T01:33:45.038Z,99.99
2019-02-12T01:34:45.032Z,99.99
2019-02-12T01:35:44.998Z,99.99
2019-02-12T01:36:44.988Z,99.99
2019-02-12T01:37:44.976Z,99.99
2019-02-12T01:38:44.964Z,99.99
2019-02-12T01:39:44.973Z,99.99
2019-02-12T01:40:45.869Z,99.99
2019-02-12T01:41:44.939Z,99.99
2019-02-12T01:42:44.944Z,99.99
2019-02-12T01:43:44.918Z,99.99
2019-02-12T01:44:44.943Z,99.99
2019-02-12T01:45:44.891Z,99.99
2019-02-12T01:46:44.882Z,99.99
2019-02-12T01:47:44.883Z,99.99
2019-02-12T01:48:44.863Z,99.99
2019-02-12T01:49:44.875Z,99.99
2019-02-12T01:50:44.837Z,99.99
2019-02-12T01:51:44.825Z,99.99
2019-02-12T01:52:44.818Z,99.99
2019-02-12T01:53:44.815Z,99.99
2019-02-12T01:54:44.817Z,99.99
2019-02-12T01:55:44.784Z,99.99
2019-02-12T01:56:44.785Z,99.99
2019-02-12T01:57:44.768Z,99.99
2019-02-12T01:58:44.756Z,99.99
2019-02-12T01:59:44.762Z,99.99
2019-02-12T02:00:44.726Z,99.99
2019-02-12T02:01:44.721Z,99.99
2019-02-12T02:02:44.714Z,99.99
2019-02-12T02:03:44.695Z,99.99
2019-02-12T02:04:44.704Z,99.99
2019-02-12T02:05:44.690Z,99.99
2019-02-12T02:06:44.672Z,99.99
2019-02-12T02:07:44.661Z,99.99
2019-02-12T02:08:44.645Z,99.99
2019-02-12T02:09:44.648Z,99.99
2019-02-12T02:10:44.648Z,99.99
2019-02-12T02:11:44.617Z,99.99
2019-02-12T02:12:44.628Z,99.99
2019-02-12T03:58:57.807Z,99.99
2019-02-12T03:59:21.535Z,99.99
2019-02-12T04:00:21.538Z,99.99
2019-02-12T04:01:21.531Z,99.99
2019-02-12T04:02:21.505Z,99.99
2019-02-12T04:03:21.504Z,99.99
2019-02-12T04:04:21.485Z,99.99
2019-02-12T04:05:21.474Z,99.99
2019-02-12T04:06:21.480Z,99.93
2019-02-12T04:07:21.464Z,99.41
2019-02-12T04:08:21.452Z,99.99
2019-02-12T04:09:21.436Z,99.98
2019-02-12T04:10:21.434Z,99.30
2019-02-12T04:11:21.423Z,99.66
2019-02-12T04:12:21.430Z,99.45
2019-02-12T04:13:21.407Z,99.24
2019-02-12T04:14:21.381Z,99.18
2019-02-12T04:15:21.370Z,99.29
2019-02-12T04:16:21.374Z,99.81
2019-02-12T04:17:21.356Z,99.50
2019-02-12T04:18:21.354Z,99.60
2019-02-12T04:19:21.328Z,99.18
2019-02-12T04:20:21.321Z,99.23
2019-02-12T04:21:21.339Z,99.17
2019-02-12T04:22:23.009Z,99.69
2019-02-12T04:23:21.291Z,99.80
2019-02-12T04:24:21.281Z,99.84
2019-02-12T04:25:21.275Z,99.99
2019-02-12T04:26:21.299Z,99.99
2019-02-12T04:27:21.248Z,99.99
2019-02-12T04:28:21.242Z,99.99
2019-02-12T04:29:21.237Z,99.99
2019-02-12T04:30:21.217Z,99.99
2019-02-12T04:31:21.227Z,99.99
2019-02-12T04:32:21.209Z,99.99
2019-02-12T04:33:21.190Z,99.99
2019-02-12T04:34:21.181Z,99.99
2019-02-12T04:35:21.172Z,99.99
2019-02-12T04:36:21.181Z,99.99
2019-02-12T04:37:21.149Z,99.99
2019-02-12T04:38:21.139Z,99.99
2019-02-12T04:39:21.128Z,99.99
2019-02-12T04:40:21.113Z,99.99
2019-02-12T04:41:21.150Z,99.99
2019-02-12T04:42:21.099Z,99.99
2019-02-12T04:43:21.100Z,99.99
2019-02-12T04:44:21.070Z,99.99
2019-02-12T04:45:21.081Z,99.99
2019-02-12T04:46:21.086Z,99.99
2019-02-12T04:47:21.044Z,99.99
2019-02-12T04:48:21.036Z,99.99
2019-02-12T04:49:21.034Z,99.99
2019-02-12T04:50:21.029Z,99.99
2019-02-12T04:51:21.001Z,99.99
2019-02-12T04:52:21.002Z,99.99
2019-02-12T04:53:20.987Z,99.99
2019-02-12T04:54:20.967Z,99.99
2019-02-12T04:55:20.965Z,99.99
2019-02-12T04:56:20.946Z,99.99
2019-02-12T04:57:20.947Z,99.99
2019-02-12T04:58:20.925Z,99.99
2019-02-12T04:59:20.925Z,99.99
2019-02-12T05:00:20.907Z,99.99
2019-02-12T05:01:20.897Z,99.99
2019-02-12T05:02:20.896Z,99.99
2019-02-12T05:03:20.889Z,99.99
2019-02-12T05:04:20.889Z,99.99
2019-02-12T05:05:20.851Z,99.99
2019-02-12T05:06:20.844Z,99.99
2019-02-12T05:07:20.854Z,99.99
2019-02-12T05:08:20.828Z,99.99
2019-02-12T05:09:20.828Z,99.99
2019-02-12T05:10:20.821Z,99.99
2019-02-12T05:11:20.793Z,99.99
2019-02-12T05:12:20.799Z,99.99
2019-02-12T05:13:20.768Z,99.99
2019-02-12T05:14:20.770Z,99.99
2019-02-12T05:15:20.764Z,99.99
2019-02-12T05:16:20.743Z,99.99
2019-02-12T05:17:20.770Z,99.99
2019-02-12T05:18:20.717Z,99.99
2019-02-12T05:19:20.707Z,99.99
2019-02-12T05:20:20.702Z,99.99
2019-02-12T05:21:20.686Z,99.99
2019-02-12T05:22:20.697Z,99.99
2019-02-12T05:23:20.684Z,99.99
2019-02-12T05:24:20.663Z,99.99
2019-02-12T05:25:20.657Z,99.99
2019-02-12T05:26:20.633Z,99.99
2019-02-12T05:27:20.641Z,99.99
2019-02-12T05:28:20.625Z,99.99
2019-02-12T05:29:20.606Z,99.99
2019-02-12T05:30:20.604Z,99.99
2019-02-12T05:31:20.599Z,99.99
2019-02-12T05:32:20.584Z,99.99
2019-02-12T05:33:20.565Z,99.99
2019-02-12T05:34:20.550Z,99.99
2019-02-12T05:35:20.546Z,99.99
2019-02-12T05:36:20.545Z,99.99
2019-02-12T05:37:20.533Z,99.99
2019-02-12T05:38:20.510Z,99.99
2019-02-12T05:39:20.503Z,99.99
2019-02-12T05:40:20.509Z,99.99
2019-02-12T05:41:20.505Z,99.99
2019-02-12T05:42:20.497Z,99.99
2019-02-12T05:43:20.465Z,99.99
2019-02-12T05:44:20.447Z,99.99
2019-02-12T05:45:20.451Z,99.99
2019-02-12T05:46:20.440Z,99.99
2019-02-12T05:47:20.425Z,99.99
2019-02-12T05:48:20.418Z,99.99
2019-02-12T05:49:20.421Z,99.99
2019-02-12T05:50:20.418Z,99.99
2019-02-12T05:51:20.373Z,99.99
2019-02-12T05:52:20.382Z,99.99
2019-02-12T05:53:20.362Z,99.99
2019-02-12T05:54:20.350Z,99.99
2019-02-12T05:55:20.334Z,99.99
2019-02-12T05:56:20.320Z,99.99
2019-02-12T05:57:20.310Z,99.99
2019-02-12T05:58:20.338Z,99.99
2019-02-12T05:59:20.288Z,99.99
2019-02-12T06:00:20.291Z,99.99
2019-02-12T06:01:20.266Z,99.99
2019-02-12T06:02:20.260Z,99.99
2019-02-12T06:03:20.259Z,99.99
2019-02-12T06:04:20.263Z,99.99
2019-02-12T06:05:20.244Z,99.99
2019-02-12T06:06:20.220Z,99.99
2019-02-12T06:07:20.217Z,99.99
2019-02-12T06:08:20.240Z,99.99
2019-02-12T06:09:20.204Z,99.99
2019-02-12T06:10:20.172Z,99.99
2019-02-12T06:11:20.190Z,99.99
2019-02-12T06:12:20.175Z,99.99
2019-02-12T06:13:20.173Z,99.99
2019-02-12T06:14:20.160Z,99.99
2019-02-12T06:15:20.144Z,99.99
2019-02-12T06:16:20.137Z,99.99
2019-02-12T06:17:20.139Z,99.99
2019-02-12T06:18:20.108Z,99.99
2019-02-12T06:19:20.084Z,99.99
2019-02-12T06:20:20.073Z,99.99
2019-02-12T06:21:20.073Z,99.99
2019-02-12T06:22:20.063Z,99.99
2019-02-12T06:23:20.079Z,99.99
2019-02-12T06:24:20.038Z,99.99
2019-02-12T06:25:20.196Z,99.99
2019-02-12T06:26:20.040Z,99.99
2019-02-12T06:27:19.996Z,99.99
2019-02-12T06:28:20.024Z,99.99
2019-02-12T06:29:19.996Z,99.99
2019-02-12T06:30:19.974Z,99.99
2019-02-12T06:31:19.982Z,99.99
2019-02-12T06:32:19.960Z,99.99
2019-02-12T06:33:19.973Z,99.99
2019-02-12T06:34:19.931Z,99.99
2019-02-12T06:35:19.915Z,99.99
2019-02-12T06:36:19.903Z,99.99
2019-02-12T06:37:19.916Z,99.99
2019-02-12T06:38:19.917Z,99.99
2019-02-12T06:39:19.875Z,99.99
2019-02-12T06:40:19.937Z,99.99
2019-02-12T06:41:19.855Z,99.99
2019-02-12T06:42:19.841Z,99.99
2019-02-12T06:43:19.906Z,99.99
2019-02-12T06:44:19.873Z,99.99
2019-02-12T06:45:19.840Z,99.99
2019-02-12T06:46:19.801Z,99.99
2019-02-12T06:47:19.809Z,99.99
2019-02-12T06:48:19.817Z,99.99
2019-02-12T06:49:19.780Z,99.99
2019-02-12T06:50:19.783Z,99.99
2019-02-12T06:51:19.748Z,99.99
2019-02-12T06:52:19.738Z,99.99
2019-02-12T06:53:19.742Z,99.99
2019-02-12T06:54:19.719Z,99.99
2019-02-12T06:55:19.725Z,99.99
2019-02-12T06:56:19.695Z,99.99
2019-02-12T06:57:19.686Z,99.99
2019-02-12T06:58:19.687Z,99.99
2019-02-12T06:59:19.665Z,99.99
2019-02-12T07:00:19.654Z,99.99
2019-02-12T07:01:19.650Z,99.99
2019-02-12T07:02:19.659Z,99.99
2019-02-12T07:03:19.639Z,99.99
2019-02-12T07:04:19.647Z,99.99
2019-02-12T07:05:19.605Z,99.99
2019-02-12T07:06:19.593Z,99.99
2019-02-12T07:07:19.588Z,99.99
2019-02-12T07:08:19.597Z,99.99
2019-02-12T07:09:19.571Z,99.99
2019-02-12T07:10:19.557Z,99.99
2019-02-12T07:11:19.558Z,99.99
2019-02-12T07:12:19.537Z,99.99
2019-02-12T07:13:19.543Z,99.99
2019-02-12T07:14:19.518Z,99.99
2019-02-12T07:15:19.503Z,99.99
2019-02-12T07:16:19.495Z,99.99
2019-02-12T07:17:19.479Z,99.99
2019-02-12T07:18:19.490Z,99.99
2019-02-12T07:19:19.463Z,99.99
2019-02-12T07:20:19.465Z,99.99
2019-02-12T07:21:19.455Z,99.99
2019-02-12T07:22:19.431Z,99.99
2019-02-12T07:23:21.324Z,99.99
2019-02-12T07:24:19.425Z,99.99
2019-02-12T07:25:19.414Z,99.99
2019-02-12T07:26:19.391Z,99.99
2019-02-12T07:27:19.381Z,99.99
2019-02-12T07:28:19.374Z,99.99
2019-02-12T07:29:19.377Z,99.99
2019-02-12T07:30:19.345Z,99.99
2019-02-12T07:31:19.352Z,99.99
2019-02-12T07:32:19.328Z,99.99
2019-02-12T07:33:19.319Z,99.99
2019-02-12T07:34:19.335Z,99.99
2019-02-12T07:35:19.293Z,99.99
2019-02-12T07:36:19.289Z,99.99
2019-02-12T07:37:19.276Z,99.99
2019-02-12T07:38:19.275Z,99.99
2019-02-12T07:39:19.273Z,99.99
2019-02-12T07:40:19.241Z,99.99
2019-02-12T07:41:20.455Z,99.99
2019-02-12T07:42:19.234Z,99.99
2019-02-12T07:43:19.219Z,99.99
2019-02-12T07:44:19.224Z,99.99
2019-02-12T07:45:19.194Z,99.99
2019-02-12T07:46:19.178Z,99.99
2019-02-12T07:47:19.175Z,99.99
2019-02-12T07:48:19.158Z,99.99
2019-02-12T07:49:19.192Z,99.99
2019-02-12T07:50:19.137Z,99.99
2019-02-12T07:51:19.135Z,99.99
2019-02-12T07:52:19.122Z,99.99
2019-02-12T07:53:19.110Z,99.99
2019-02-12T07:54:19.113Z,99.99
2019-02-12T07:55:19.088Z,99.99
2019-02-12T07:56:19.093Z,99.99
2019-02-12T07:57:19.076Z,99.99
2019-02-12T07:58:19.058Z,99.99
2019-02-12T07:59:19.062Z,99.99
2019-02-12T08:00:19.059Z,99.99
2019-02-12T08:01:19.031Z,99.99
2019-02-12T08:02:19.012Z,99.99
2019-02-12T08:03:19.002Z,99.99
2019-02-12T08:04:19.027Z,99.99
2019-02-12T08:05:18.989Z,99.99
2019-02-12T08:06:18.983Z,99.99
2019-02-12T08:07:18.984Z,99.99
2019-02-12T08:08:18.985Z,99.99
2019-02-12T08:09:18.952Z,99.99
2019-02-12T08:10:18.926Z,99.99
2019-02-12T08:11:18.932Z,99.99
2019-02-12T08:12:18.917Z,99.99
2019-02-12T08:13:18.903Z,99.99
2019-02-12T08:14:18.925Z,99.99
2019-02-12T08:15:18.879Z,99.99
2019-02-12T08:16:18.872Z,99.99
2019-02-12T08:17:18.862Z,99.99
2019-02-12T08:18:18.851Z,99.99
2019-02-12T08:19:18.849Z,99.99
2019-02-12T08:20:18.823Z,99.99
2019-02-12T08:21:18.875Z,99.99
2019-02-12T08:22:18.802Z,99.99
2019-02-12T08:23:18.800Z,99.99
2019-02-12T08:24:18.803Z,99.99
2019-02-12T08:25:18.774Z,99.99
2019-02-12T08:26:18.760Z,99.99
2019-02-12T08:27:18.771Z,99.99
2019-02-12T08:28:18.774Z,99.99
2019-02-12T08:29:18.762Z,99.99
2019-02-12T08:30:18.728Z,99.99
2019-02-12T08:31:18.731Z,99.99
2019-02-12T08:32:18.707Z,99.99
2019-02-12T08:33:18.698Z,99.99
2019-02-12T08:34:18.692Z,99.99
2019-02-12T08:35:18.697Z,99.99
2019-02-12T08:36:18.656Z,99.99
2019-02-12T08:37:18.672Z,99.99
2019-02-12T08:38:18.651Z,99.99
2019-02-12T08:39:18.624Z,99.99
2019-02-12T08:40:18.636Z,99.99
2019-02-12T08:41:18.610Z,99.99
2019-02-12T08:42:18.607Z,99.99
2019-02-12T08:43:18.585Z,99.99
2019-02-12T08:44:18.592Z,99.99
2019-02-12T08:45:18.571Z,99.99
2019-02-12T08:46:18.546Z,99.99
2019-02-12T08:47:18.560Z,99.99
2019-02-12T08:48:18.531Z,99.99
2019-02-12T08:49:18.527Z,99.99
2019-02-12T08:50:18.520Z,99.99
2019-02-12T08:51:18.501Z,99.99
2019-02-12T08:52:18.487Z,99.99
2019-02-12T08:53:18.488Z,99.99
2019-02-12T08:54:18.477Z,99.99
2019-02-12T08:55:18.470Z,99.99
2019-02-12T08:56:18.442Z,99.99
2019-02-12T08:57:18.434Z,99.99
2019-02-12T08:58:18.426Z,99.99
2019-02-12T08:59:18.427Z,99.66
2019-02-12T09:00:18.421Z,99.99
2019-02-12T09:01:18.390Z,99.99
2019-02-12T09:02:18.391Z,99.99
2019-02-12T09:03:18.371Z,99.99
2019-02-12T09:04:18.372Z,99.99
2019-02-12T09:05:18.370Z,99.99
2019-02-12T09:06:18.356Z,99.99
2019-02-12T09:07:18.332Z,99.99
2019-02-12T09:08:18.317Z,99.99
2019-02-12T09:09:18.307Z,99.57
2019-02-12T09:10:18.338Z,98.80
2019-02-12T09:11:18.303Z,98.84
2019-02-12T09:12:18.276Z,98.32
2019-02-12T09:13:18.287Z,98.48
2019-02-12T09:14:18.263Z,97.59
2019-02-12T09:15:18.272Z,97.96
2019-02-12T09:16:18.248Z,98.48
2019-02-12T09:17:18.223Z,98.48
2019-02-12T09:18:18.213Z,98.65
2019-02-12T09:19:18.212Z,98.08
2019-02-12T09:20:18.216Z,98.39
2019-02-12T09:21:18.202Z,98.35
2019-02-12T09:22:18.259Z,97.41
2019-02-12T09:23:18.171Z,96.52
2019-02-12T09:24:18.181Z,96.31
2019-02-12T09:25:18.161Z,95.90
2019-02-12T09:26:18.147Z,95.79
2019-02-12T09:27:18.117Z,95.79
2019-02-12T09:28:18.110Z,95.54
2019-02-12T09:29:18.121Z,95.81
2019-02-12T09:30:18.094Z,96.75
2019-02-12T09:31:18.133Z,95.75
2019-02-12T09:32:18.072Z,95.28
2019-02-12T09:33:18.053Z,94.82
2019-02-12T09:34:18.053Z,95.75
2019-02-12T09:35:18.046Z,96.64
2019-02-12T09:36:18.048Z,97.06
2019-02-12T09:37:18.015Z,96.39
2019-02-12T09:38:17.998Z,94.32
2019-02-12T09:39:17.996Z,92.49
2019-02-12T09:40:19.443Z,93.53
2019-02-12T09:41:18.020Z,95.56
2019-02-12T09:42:17.969Z,94.36
2019-02-12T09:43:17.956Z,93.95
2019-02-12T09:44:17.959Z,94.78
2019-02-12T09:45:17.952Z,94.57
2019-02-12T09:46:17.947Z,94.26
2019-02-12T09:47:17.904Z,95.81
2019-02-12T09:48:17.901Z,95.71
2019-02-12T09:49:17.888Z,95.25
2019-02-12T09:50:17.898Z,94.26
2019-02-12T09:51:17.967Z,93.43
2019-02-12T09:52:17.851Z,94.88
2019-02-12T09:53:17.846Z,94.26
2019-02-12T09:54:17.859Z,92.90
2019-02-12T09:55:17.827Z,93.80
2019-02-12T09:56:17.852Z,93.07
2019-02-12T09:57:17.819Z,93.07
2019-02-12T09:58:17.818Z,92.30
2019-02-12T09:59:17.791Z,91.16
2019-02-12T10:00:17.773Z,91.68
2019-02-12T10:01:17.802Z,91.06
2019-02-12T10:02:17.818Z,91.10
2019-02-12T10:03:17.756Z,91.72
2019-02-12T10:04:17.756Z,92.45
2019-02-12T10:05:17.710Z,92.84
2019-02-12T10:06:21.678Z,92.74
2019-02-12T10:07:18.716Z,93.57
2019-02-12T10:08:17.695Z,93.01
2019-02-12T10:09:17.683Z,93.28
2019-02-12T10:10:17.677Z,92.80
2019-02-12T10:11:17.662Z,92.69
2019-02-12T10:12:17.662Z,92.80
2019-02-12T10:13:17.641Z,93.07
2019-02-12T10:14:17.647Z,93.23
2019-02-12T10:15:17.610Z,93.02
2019-02-12T10:16:17.614Z,92.72
2019-02-12T10:17:17.631Z,92.61
2019-02-12T10:18:17.586Z,91.64
2019-02-12T10:19:17.563Z,90.23
2019-02-12T10:20:17.650Z,91.64
2019-02-12T10:21:17.566Z,91.12
2019-02-12T10:22:17.551Z,90.75
2019-02-12T10:23:17.522Z,91.76
2019-02-12T10:24:19.633Z,92.53
2019-02-12T10:25:17.500Z,93.63
2019-02-12T10:26:17.488Z,92.90
2019-02-12T10:27:17.503Z,93.57
2019-02-12T10:28:17.473Z,92.90
2019-02-12T10:29:17.456Z,92.59
2019-02-12T10:30:17.510Z,93.49
2019-02-12T10:31:17.463Z,93.07
2019-02-12T10:32:17.438Z,92.69
2019-02-12T10:33:17.427Z,93.22
2019-02-12T10:34:17.402Z,92.14
2019-02-12T10:35:17.414Z,92.30
2019-02-12T10:36:17.408Z,90.95
2019-02-12T10:37:17.387Z,90.29
2019-02-12T10:38:17.362Z,89.56
2019-02-12T10:39:17.371Z,90.70
2019-02-12T10:40:17.376Z,90.29
2019-02-12T10:41:17.328Z,88.86
2019-02-12T10:42:17.328Z,88.26
2019-02-12T10:43:17.311Z,91.38
2019-02-12T10:44:17.296Z,87.97
2019-02-12T10:45:17.295Z,87.76
2019-02-12T10:46:17.290Z,86.01
2019-02-12T10:47:17.289Z,86.73
2019-02-12T10:48:18.039Z,85.39
2019-02-12T10:49:17.244Z,84.56
2019-02-12T10:50:17.243Z,85.28
2019-02-12T10:51:17.223Z,85.80
2019-02-12T10:52:17.236Z,84.15
2019-02-12T10:53:17.204Z,83.56
2019-02-12T10:54:17.216Z,85.80
2019-02-12T10:55:17.187Z,86.73
2019-02-12T10:56:17.188Z,87.83
2019-02-12T10:57:17.165Z,86.59
2019-02-12T10:58:17.185Z,86.79
2019-02-12T10:59:17.155Z,85.52
2019-02-12T11:00:17.127Z,83.76
2019-02-12T11:01:17.121Z,82.75
2019-02-12T11:02:17.107Z,80.72
2019-02-12T11:03:17.108Z,82.40
2019-02-12T11:04:17.092Z,79.34
2019-02-12T11:05:17.110Z,81.20
2019-02-12T11:06:17.075Z,80.33
2019-02-12T11:07:17.087Z,82.95
2019-02-12T11:08:17.089Z,80.72
2019-02-12T11:09:17.032Z,79.21
2019-02-12T11:10:17.059Z,79.93
2019-02-12T11:11:17.011Z,81.10
2019-02-12T11:12:16.998Z,83.72
2019-02-12T11:13:17.003Z,82.83
2019-02-12T11:14:16.981Z,82.62
2019-02-12T11:15:16.993Z,85.47
2019-02-12T11:16:16.970Z,85.17
2019-02-12T11:17:16.963Z,84.20
2019-02-12T11:18:16.981Z,84.84
2019-02-12T11:19:16.968Z,83.05
2019-02-12T11:20:16.911Z,80.14
2019-02-12T11:21:16.904Z,81.07
2019-02-12T11:22:16.889Z,80.96
2019-02-12T11:23:16.896Z,81.58
2019-02-12T11:24:16.870Z,81.99
2019-02-12T11:25:16.858Z,80.93
2019-02-12T11:26:16.856Z,81.86
2019-02-12T11:27:16.846Z,83.55
2019-02-12T11:28:16.849Z,84.03
2019-02-12T11:29:16.818Z,83.62
2019-02-12T11:30:16.809Z,82.79
2019-02-12T11:31:16.814Z,83.27
2019-02-12T11:32:16.787Z,81.89
2019-02-12T11:33:16.825Z,80.48
2019-02-12T11:34:16.773Z,82.20
2019-02-12T11:35:16.775Z,78.04
2019-02-12T11:36:16.765Z,79.68
2019-02-12T11:37:16.731Z,76.87
2019-02-12T11:38:16.779Z,78.86
2019-02-12T11:39:16.733Z,80.07
2019-02-12T11:40:16.698Z,82.61
2019-02-12T11:41:16.749Z,81.85
2019-02-12T11:42:16.708Z,81.85
2019-02-12T11:43:16.691Z,81.75
2019-02-12T11:44:16.666Z,82.16
2019-02-12T11:45:16.671Z,83.09
2019-02-12T11:46:16.642Z,81.61
2019-02-12T11:47:16.647Z,81.37
2019-02-12T11:48:17.931Z,80.75
2019-02-12T11:49:16.625Z,78.38
2019-02-12T11:50:16.612Z,80.85
2019-02-12T11:51:16.620Z,78.86
2019-02-12T11:52:16.571Z,77.55
2019-02-12T11:53:16.570Z,77.21
2019-02-12T11:54:16.569Z,78.75
2019-02-12T11:55:16.537Z,83.39
2019-02-12T11:56:16.527Z,80.30
2019-02-12T11:57:16.517Z,78.65
2019-02-12T11:58:16.527Z,77.66
2019-02-12T11:59:16.513Z,78.21
2019-02-12T12:00:16.486Z,78.83
2019-02-12T12:01:16.483Z,80.58
2019-02-12T12:02:16.514Z,80.44
2019-02-12T12:03:16.452Z,81.74
2019-02-12T12:04:16.470Z,79.95
2019-02-12T12:05:16.439Z,79.85
2019-02-12T12:06:16.462Z,77.79
2019-02-12T12:07:16.445Z,79.81
2019-02-12T12:08:16.443Z,80.19
2019-02-12T12:09:16.411Z,78.06
2019-02-12T12:10:16.383Z,77.07
2019-02-12T12:11:16.374Z,78.55
2019-02-12T12:12:16.377Z,77.72
2019-02-12T12:13:16.352Z,77.25
2019-02-12T12:14:16.357Z,79.20
2019-02-12T12:15:16.332Z,78.03
2019-02-12T12:16:16.345Z,79.88
2019-02-12T12:17:16.303Z,77.86
2019-02-12T12:18:16.323Z,79.55
2019-02-12T12:19:16.375Z,81.03
2019-02-12T12:20:16.279Z,81.96
2019-02-12T12:21:16.284Z,83.26
2019-02-12T12:22:16.253Z,80.30
2019-02-12T12:23:16.269Z,82.33
2019-02-12T12:24:16.255Z,82.54
2019-02-12T12:25:16.220Z,83.22
2019-02-12T12:26:16.243Z,79.82
2019-02-12T12:27:16.211Z,80.02
2019-02-12T12:28:16.205Z,79.41
2019-02-12T12:29:16.196Z,78.83
2019-02-12T12:30:16.175Z,78.79
2019-02-12T12:31:16.188Z,80.33
2019-02-12T12:32:16.153Z,78.24
2019-02-12T12:33:16.130Z,79.06
2019-02-12T12:34:16.175Z,78.34
2019-02-12T12:35:16.114Z,79.37
2019-02-12T12:36:16.102Z,80.26
2019-02-12T12:37:16.090Z,77.92
2019-02-12T12:38:16.078Z,77.51
2019-02-12T12:39:16.085Z,77.27
2019-02-12T12:40:16.058Z,76.35
2019-02-12T12:41:16.048Z,76.35
2019-02-12T12:42:16.041Z,76.38
2019-02-12T12:43:16.032Z,75.76
2019-02-12T12:44:16.046Z,76.79
2019-02-12T12:45:16.010Z,76.59
2019-02-12T12:46:15.991Z,76.76
2019-02-12T12:47:15.989Z,75.77
2019-02-12T12:48:15.980Z,77.31
2019-02-12T12:49:15.974Z,77.51
2019-02-12T12:50:15.957Z,77.51
2019-02-12T12:51:15.978Z,76.86
2019-02-12T12:52:15.927Z,75.73
2019-02-12T12:53:15.922Z,75.52
2019-02-12T12:54:15.919Z,76.86
2019-02-12T12:55:15.893Z,76.35
2019-02-12T12:56:15.916Z,75.80
2019-02-12T12:57:15.874Z,76.21
2019-02-12T12:58:15.861Z,77.10
2019-02-12T12:59:15.873Z,78.09
2019-02-12T13:00:15.842Z,75.83
2019-02-12T13:01:15.833Z,73.30
2019-02-12T13:02:15.827Z,74.98
2019-02-12T13:03:15.814Z,74.08
2019-02-12T13:04:15.801Z,76.39
2019-02-12T13:05:15.814Z,78.00
2019-02-12T13:06:15.794Z,77.75
2019-02-12T13:07:15.778Z,75.76
2019-02-12T13:08:15.772Z,77.24
2019-02-12T13:09:15.746Z,74.19
2019-02-12T13:10:15.755Z,76.70
2019-02-12T13:11:15.721Z,75.97
2019-02-12T13:12:15.711Z,77.21
2019-02-12T13:13:16.945Z,75.08
2019-02-12T13:14:15.699Z,76.93
2019-02-12T13:15:15.700Z,77.04
2019-02-12T13:16:15.684Z,79.47
2019-02-12T13:17:15.673Z,77.28
2019-02-12T13:18:15.653Z,75.94
2019-02-12T13:19:15.639Z,75.59
2019-02-12T13:20:15.644Z,75.32
2019-02-12T13:21:15.649Z,76.39
2019-02-12T13:22:15.609Z,75.87
2019-02-12T13:23:15.606Z,76.25
2019-02-12T13:24:15.595Z,76.18
2019-02-12T13:25:15.598Z,75.25
2019-02-12T13:26:15.564Z,76.49
2019-02-12T13:27:15.563Z,76.39
2019-02-12T13:28:15.543Z,76.56
2019-02-12T13:29:15.537Z,75.67
2019-02-12T13:30:15.534Z,74.05
2019-02-12T13:31:15.517Z,75.18
2019-02-12T13:32:15.512Z,77.04
2019-02-12T13:33:15.500Z,78.48
2019-02-12T13:34:15.481Z,80.44
2019-02-12T13:35:15.485Z,77.76
2019-02-12T13:36:15.455Z,76.73
2019-02-12T13:37:15.445Z,79.61
2019-02-12T13:38:15.444Z,77.86
2019-02-12T13:39:15.445Z,76.53
2019-02-12T13:40:15.438Z,75.18
2019-02-12T13:41:15.428Z,74.26
2019-02-12T13:42:15.402Z,76.32
2019-02-12T13:43:15.394Z,76.63
2019-02-12T13:44:15.378Z,79.14
2019-02-12T13:45:15.378Z,76.42
2019-02-12T13:46:15.350Z,77.18
2019-02-12T13:47:15.349Z,75.84
2019-02-12T13:48:15.348Z,74.19
2019-02-12T13:49:15.332Z,74.12
2019-02-12T13:50:15.336Z,72.78
2019-02-12T13:51:15.303Z,75.05
2019-02-12T13:52:15.296Z,72.67
2019-02-12T13:53:15.277Z,75.32
2019-02-12T13:54:15.264Z,73.78
2019-02-12T13:55:17.601Z,74.26
2019-02-12T13:56:15.251Z,76.32
2019-02-12T13:57:15.248Z,76.28
2019-02-12T13:58:15.226Z,73.81
2019-02-12T13:59:15.215Z,74.63
2019-02-12T14:00:15.209Z,74.22
2019-02-12T14:01:15.186Z,72.54
2019-02-12T14:02:15.174Z,73.88
2019-02-12T14:03:22.254Z,70.72
2019-02-12T14:04:16.181Z,68.15
2019-02-12T14:05:15.180Z,69.38
2019-02-12T14:06:15.294Z,70.72
2019-02-12T14:07:15.127Z,68.87
2019-02-12T14:08:15.126Z,67.12
2019-02-12T14:09:15.103Z,72.58
2019-02-12T14:10:15.122Z,71.14
2019-02-12T14:11:15.090Z,71.41
2019-02-12T14:12:15.851Z,70.48
2019-02-12T14:13:15.060Z,68.22
2019-02-12T14:14:15.050Z,71.41
2019-02-12T14:15:15.046Z,69.15
2019-02-12T14:16:15.043Z,70.79
2019-02-12T14:17:15.018Z,70.69
2019-02-12T14:18:15.021Z,69.35
2019-02-12T14:19:14.993Z,70.28
2019-02-12T14:20:14.999Z,70.76
2019-02-12T14:21:14.990Z,69.66
2019-02-12T14:22:14.961Z,68.46
2019-02-12T14:23:14.968Z,67.63
2019-02-12T14:24:14.947Z,70.00
2019-02-12T14:25:14.936Z,71.14
2019-02-12T14:26:14.930Z,70.00
2019-02-12T14:27:14.914Z,70.72
2019-02-12T14:28:14.897Z,70.04
2019-02-12T14:29:14.911Z,71.14
2019-02-12T14:30:14.934Z,70.14
2019-02-12T14:31:14.885Z,69.42
2019-02-12T14:32:14.860Z,70.45
2019-02-12T14:33:14.850Z,68.93
2019-02-12T14:34:14.837Z,70.28
2019-02-12T14:35:14.822Z,71.27
2019-02-12T14:36:14.840Z,71.27
2019-02-12T14:37:14.809Z,70.76